sensor_id;sensor_type;location;lat;lon;timestamp;temperature;humidity
57026;DHT22;43961;52.940;6.834;2023-08-07T00:01:30;14.40;99.90
57026;DHT22;43961;52.940;6.834;2023-08-07T00:03:55;14.60;99.90
57026;DHT22;43961;52.940;6.834;2023-08-07T00:06:21;14.40;99.90
57026;DHT22;43961;52.940;6.834;2023-08-07T00:11:13;14.10;99.90
57026;DHT22;43961;52.940;6.834;2023-08-07T00:13:38;14.30;99.90
57026;DHT22;43961;52.940;6.834;2023-08-07T00:18:30;14.00;99.90
57026;DHT22;43961;52.940;6.834;2023-08-07T00:20:56;14.30;99.90
57026;DHT22;43961;52.940;6.834;2023-08-07T00:23:21;13.80;99.90
57026;DHT22;43961;52.940;6.834;2023-08-07T00:25:47;14.50;99.90
57026;DHT22;43961;52.940;6.834;2023-08-07T00:28:13;14.20;99.90
57026;DHT22;43961;52.940;6.834;2023-08-07T00:30:38;14.50;99.90
57026;DHT22;43961;52.940;6.834;2023-08-07T00:33:04;14.50;99.90
57026;DHT22;43961;52.940;6.834;2023-08-07T00:35:29;14.40;99.90
57026;DHT22;43961;52.940;6.834;2023-08-07T00:37:55;14.30;99.90
57026;DHT22;43961;52.940;6.834;2023-08-07T00:40:55;14.40;99.90
57026;DHT22;43961;52.940;6.834;2023-08-07T00:43:21;14.70;99.90
57026;DHT22;43961;52.940;6.834;2023-08-07T00:45:47;14.60;99.90
57026;DHT22;43961;52.940;6.834;2023-08-07T00:48:15;14.40;99.90
57026;DHT22;43961;52.940;6.834;2023-08-07T00:50:41;14.60;99.90
57026;DHT22;43961;52.940;6.834;2023-08-07T00:53:07;15.30;99.90
57026;DHT22;43961;52.940;6.834;2023-08-07T00:55:33;14.30;99.90
57026;DHT22;43961;52.940;6.834;2023-08-07T00:57:59;14.40;99.90
57026;DHT22;43961;52.940;6.834;2023-08-07T01:00:27;14.60;99.90
57026;DHT22;43961;52.940;6.834;2023-08-07T01:02:56;14.40;99.90
57026;DHT22;43961;52.940;6.834;2023-08-07T01:05:26;14.50;99.90
57026;DHT22;43961;52.940;6.834;2023-08-07T01:07:53;14.40;99.90
57026;DHT22;43961;52.940;6.834;2023-08-07T01:13:37;14.50;99.90
57026;DHT22;43961;52.940;6.834;2023-08-07T01:16:13;14.80;99.90
57026;DHT22;43961;52.940;6.834;2023-08-07T01:18:40;14.40;99.90
57026;DHT22;43961;52.940;6.834;2023-08-07T01:21:17;14.60;99.90
57026;DHT22;43961;52.940;6.834;2023-08-07T01:23:43;14.50;99.90
57026;DHT22;43961;52.940;6.834;2023-08-07T01:28:38;14.50;99.90
57026;DHT22;43961;52.940;6.834;2023-08-07T01:31:11;14.40;99.90
57026;DHT22;43961;52.940;6.834;2023-08-07T01:34:02;14.60;99.90
57026;DHT22;43961;52.940;6.834;2023-08-07T01:36:29;14.50;99.90
57026;DHT22;43961;52.940;6.834;2023-08-07T01:39:00;14.30;99.90
57026;DHT22;43961;52.940;6.834;2023-08-07T01:41:26;14.50;99.90
57026;DHT22;43961;52.940;6.834;2023-08-07T01:43:53;14.50;99.90
57026;DHT22;43961;52.940;6.834;2023-08-07T01:48:45;14.40;99.90
57026;DHT22;43961;52.940;6.834;2023-08-07T01:51:11;14.30;99.90
57026;DHT22;43961;52.940;6.834;2023-08-07T01:53:36;14.50;99.90
57026;DHT22;43961;52.940;6.834;2023-08-07T01:58:29;14.40;99.90
57026;DHT22;43961;52.940;6.834;2023-08-07T02:03:20;14.50;99.90
57026;DHT22;43961;52.940;6.834;2023-08-07T02:05:46;14.50;99.90
57026;DHT22;43961;52.940;6.834;2023-08-07T02:22:49;14.20;99.90
57026;DHT22;43961;52.940;6.834;2023-08-07T02:25:15;14.30;99.90
57026;DHT22;43961;52.940;6.834;2023-08-07T02:27:41;14.40;99.90
57026;DHT22;43961;52.940;6.834;2023-08-07T02:30:06;14.50;99.90
57026;DHT22;43961;52.940;6.834;2023-08-07T02:32:32;14.50;99.90
57026;DHT22;43961;52.940;6.834;2023-08-07T02:34:58;14.70;99.90
57026;DHT22;43961;52.940;6.834;2023-08-07T02:37:24;14.40;99.90
57026;DHT22;43961;52.940;6.834;2023-08-07T02:39:50;14.50;99.90
57026;DHT22;43961;52.940;6.834;2023-08-07T02:42:15;14.50;99.90
57026;DHT22;43961;52.940;6.834;2023-08-07T02:44:41;14.50;99.90
57026;DHT22;43961;52.940;6.834;2023-08-07T02:47:06;14.60;99.90
57026;DHT22;43961;52.940;6.834;2023-08-07T02:49:32;14.30;99.90
57026;DHT22;43961;52.940;6.834;2023-08-07T02:51:58;14.50;99.90
57026;DHT22;43961;52.940;6.834;2023-08-07T02:54:23;15.00;99.90
57026;DHT22;43961;52.940;6.834;2023-08-07T02:56:49;14.40;99.90
57026;DHT22;43961;52.940;6.834;2023-08-07T02:59:18;14.30;99.90
57026;DHT22;43961;52.940;6.834;2023-08-07T03:01:44;14.50;99.90
57026;DHT22;43961;52.940;6.834;2023-08-07T03:04:10;14.50;99.90
57026;DHT22;43961;52.940;6.834;2023-08-07T03:06:35;14.50;99.90
57026;DHT22;43961;52.940;6.834;2023-08-07T03:09:01;14.50;99.90
57026;DHT22;43961;52.940;6.834;2023-08-07T03:11:27;14.50;99.90
57026;DHT22;43961;52.940;6.834;2023-08-07T03:16:18;14.40;99.90
57026;DHT22;43961;52.940;6.834;2023-08-07T03:18:44;14.40;99.90
57026;DHT22;43961;52.940;6.834;2023-08-07T03:21:10;14.30;99.90
57026;DHT22;43961;52.940;6.834;2023-08-07T03:23:35;14.50;99.90
57026;DHT22;43961;52.940;6.834;2023-08-07T03:26:11;14.30;99.90
57026;DHT22;43961;52.940;6.834;2023-08-07T03:28:39;14.30;99.90
57026;DHT22;43961;52.940;6.834;2023-08-07T03:31:05;14.40;99.90
57026;DHT22;43961;52.940;6.834;2023-08-07T03:33:31;14.20;99.90
57026;DHT22;43961;52.940;6.834;2023-08-07T03:35:56;14.40;99.90
57026;DHT22;43961;52.940;6.834;2023-08-07T03:38:22;14.20;99.90
57026;DHT22;43961;52.940;6.834;2023-08-07T03:40:48;14.20;99.90
57026;DHT22;43961;52.940;6.834;2023-08-07T03:43:14;14.20;99.90
57026;DHT22;43961;52.940;6.834;2023-08-07T03:45:39;14.10;99.90
57026;DHT22;43961;52.940;6.834;2023-08-07T03:48:06;14.40;99.90
57026;DHT22;43961;52.940;6.834;2023-08-07T03:50:31;14.10;99.90
57026;DHT22;43961;52.940;6.834;2023-08-07T03:53:00;14.20;99.90
57026;DHT22;43961;52.940;6.834;2023-08-07T03:55:27;14.40;99.90
57026;DHT22;43961;52.940;6.834;2023-08-07T03:57:52;14.20;99.90
57026;DHT22;43961;52.940;6.834;2023-08-07T04:00:18;14.30;99.90
57026;DHT22;43961;52.940;6.834;2023-08-07T04:02:44;14.20;99.90
57026;DHT22;43961;52.940;6.834;2023-08-07T04:05:10;14.10;99.90
57026;DHT22;43961;52.940;6.834;2023-08-07T04:07:36;14.50;99.90
57026;DHT22;43961;52.940;6.834;2023-08-07T04:10:02;14.30;99.90
57026;DHT22;43961;52.940;6.834;2023-08-07T04:12:27;14.20;99.90
57026;DHT22;43961;52.940;6.834;2023-08-07T04:14:53;14.30;99.90
57026;DHT22;43961;52.940;6.834;2023-08-07T04:17:19;14.20;99.90
57026;DHT22;43961;52.940;6.834;2023-08-07T04:19:44;14.10;99.90
57026;DHT22;43961;52.940;6.834;2023-08-07T04:22:10;14.40;99.90
57026;DHT22;43961;52.940;6.834;2023-08-07T04:24:36;14.00;99.90
57026;DHT22;43961;52.940;6.834;2023-08-07T04:27:02;14.20;99.90
57026;DHT22;43961;52.940;6.834;2023-08-07T04:29:28;14.20;99.90
57026;DHT22;43961;52.940;6.834;2023-08-07T04:31:53;14.00;99.90
57026;DHT22;43961;52.940;6.834;2023-08-07T04:34:19;14.00;99.90
57026;DHT22;43961;52.940;6.834;2023-08-07T04:36:45;14.20;99.90
57026;DHT22;43961;52.940;6.834;2023-08-07T04:39:10;14.10;99.90
57026;DHT22;43961;52.940;6.834;2023-08-07T04:41:38;14.20;99.90
57026;DHT22;43961;52.940;6.834;2023-08-07T04:44:04;14.50;99.90
57026;DHT22;43961;52.940;6.834;2023-08-07T04:46:30;14.20;99.90
57026;DHT22;43961;52.940;6.834;2023-08-07T04:48:56;14.30;99.90
57026;DHT22;43961;52.940;6.834;2023-08-07T04:51:21;14.40;99.90
57026;DHT22;43961;52.940;6.834;2023-08-07T04:53:48;14.50;99.90
57026;DHT22;43961;52.940;6.834;2023-08-07T04:56:16;14.40;99.90
57026;DHT22;43961;52.940;6.834;2023-08-07T04:58:42;14.40;99.90
57026;DHT22;43961;52.940;6.834;2023-08-07T05:01:08;14.20;99.90
57026;DHT22;43961;52.940;6.834;2023-08-07T05:03:34;14.30;99.90
57026;DHT22;43961;52.940;6.834;2023-08-07T05:06:01;14.60;99.90
57026;DHT22;43961;52.940;6.834;2023-08-07T05:08:27;14.10;99.90
57026;DHT22;43961;52.940;6.834;2023-08-07T05:10:53;14.30;99.90
57026;DHT22;43961;52.940;6.834;2023-08-07T05:13:19;14.50;99.90
57026;DHT22;43961;52.940;6.834;2023-08-07T05:15:47;14.50;99.90
57026;DHT22;43961;52.940;6.834;2023-08-07T05:18:12;13.90;99.90
57026;DHT22;43961;52.940;6.834;2023-08-07T05:20:38;14.70;99.90
57026;DHT22;43961;52.940;6.834;2023-08-07T05:23:04;14.60;99.90
57026;DHT22;43961;52.940;6.834;2023-08-07T05:25:29;14.60;99.90
57026;DHT22;43961;52.940;6.834;2023-08-07T05:27:55;14.60;99.90
57026;DHT22;43961;52.940;6.834;2023-08-07T05:30:21;14.60;99.90
57026;DHT22;43961;52.940;6.834;2023-08-07T05:32:46;14.70;99.90
57026;DHT22;43961;52.940;6.834;2023-08-07T05:35:12;14.50;99.90
57026;DHT22;43961;52.940;6.834;2023-08-07T05:37:38;14.50;99.90
57026;DHT22;43961;52.940;6.834;2023-08-07T05:40:05;14.80;99.90
57026;DHT22;43961;52.940;6.834;2023-08-07T05:42:30;14.70;99.90
57026;DHT22;43961;52.940;6.834;2023-08-07T05:44:56;14.70;99.90
57026;DHT22;43961;52.940;6.834;2023-08-07T05:47:22;14.70;99.90
57026;DHT22;43961;52.940;6.834;2023-08-07T05:49:47;14.90;99.90
57026;DHT22;43961;52.940;6.834;2023-08-07T05:52:14;14.90;99.90
57026;DHT22;43961;52.940;6.834;2023-08-07T05:54:40;15.10;99.90
57026;DHT22;43961;52.940;6.834;2023-08-07T05:57:06;15.00;99.90
57026;DHT22;43961;52.940;6.834;2023-08-07T05:59:31;14.80;99.90
57026;DHT22;43961;52.940;6.834;2023-08-07T06:01:59;15.10;99.90
57026;DHT22;43961;52.940;6.834;2023-08-07T06:04:25;15.10;99.90
57026;DHT22;43961;52.940;6.834;2023-08-07T06:06:51;15.10;99.90
57026;DHT22;43961;52.940;6.834;2023-08-07T06:09:16;15.10;99.90
57026;DHT22;43961;52.940;6.834;2023-08-07T06:11:43;15.10;99.90
57026;DHT22;43961;52.940;6.834;2023-08-07T06:14:08;15.30;99.90
57026;DHT22;43961;52.940;6.834;2023-08-07T06:16:34;15.20;99.90
57026;DHT22;43961;52.940;6.834;2023-08-07T06:19:00;15.40;99.90
57026;DHT22;43961;52.940;6.834;2023-08-07T06:21:26;15.30;99.90
57026;DHT22;43961;52.940;6.834;2023-08-07T06:23:54;15.30;99.90
57026;DHT22;43961;52.940;6.834;2023-08-07T06:26:20;15.30;99.90
57026;DHT22;43961;52.940;6.834;2023-08-07T06:28:46;15.50;99.90
57026;DHT22;43961;52.940;6.834;2023-08-07T06:31:12;15.70;99.90
57026;DHT22;43961;52.940;6.834;2023-08-07T06:33:38;15.60;99.90
57026;DHT22;43961;52.940;6.834;2023-08-07T06:36:06;15.60;99.90
57026;DHT22;43961;52.940;6.834;2023-08-07T06:38:32;15.60;99.90
57026;DHT22;43961;52.940;6.834;2023-08-07T06:40:57;15.70;99.90
57026;DHT22;43961;52.940;6.834;2023-08-07T06:43:23;16.00;99.90
57026;DHT22;43961;52.940;6.834;2023-08-07T06:45:49;15.70;99.90
57026;DHT22;43961;52.940;6.834;2023-08-07T06:48:15;15.90;99.90
57026;DHT22;43961;52.940;6.834;2023-08-07T06:50:41;15.90;99.90
57026;DHT22;43961;52.940;6.834;2023-08-07T06:53:07;15.90;99.90
57026;DHT22;43961;52.940;6.834;2023-08-07T06:55:32;15.90;99.90
57026;DHT22;43961;52.940;6.834;2023-08-07T06:57:59;16.40;99.90
57026;DHT22;43961;52.940;6.834;2023-08-07T07:00:25;15.70;99.90
57026;DHT22;43961;52.940;6.834;2023-08-07T07:02:50;16.00;99.90
57026;DHT22;43961;52.940;6.834;2023-08-07T07:05:16;15.80;99.90
57026;DHT22;43961;52.940;6.834;2023-08-07T07:07:43;15.70;99.90
57026;DHT22;43961;52.940;6.834;2023-08-07T07:10:09;16.40;99.90
57026;DHT22;43961;52.940;6.834;2023-08-07T07:12:35;16.10;99.90
57026;DHT22;43961;52.940;6.834;2023-08-07T07:15:00;16.30;99.90
57026;DHT22;43961;52.940;6.834;2023-08-07T07:17:26;15.80;99.90
57026;DHT22;43961;52.940;6.834;2023-08-07T07:19:52;15.90;99.90
57026;DHT22;43961;52.940;6.834;2023-08-07T07:22:17;15.90;99.90
57026;DHT22;43961;52.940;6.834;2023-08-07T07:24:43;15.40;99.90
57026;DHT22;43961;52.940;6.834;2023-08-07T07:27:09;16.20;99.90
57026;DHT22;43961;52.940;6.834;2023-08-07T07:29:34;16.30;99.90
57026;DHT22;43961;52.940;6.834;2023-08-07T07:32:00;16.40;99.90
57026;DHT22;43961;52.940;6.834;2023-08-07T07:34:25;16.80;99.90
57026;DHT22;43961;52.940;6.834;2023-08-07T07:36:51;17.10;99.90
57026;DHT22;43961;52.940;6.834;2023-08-07T07:39:19;17.20;99.90
57026;DHT22;43961;52.940;6.834;2023-08-07T07:41:44;17.80;99.90
57026;DHT22;43961;52.940;6.834;2023-08-07T07:44:10;17.60;99.90
57026;DHT22;43961;52.940;6.834;2023-08-07T07:46:36;17.60;99.90
57026;DHT22;43961;52.940;6.834;2023-08-07T07:49:01;17.60;99.90
57026;DHT22;43961;52.940;6.834;2023-08-07T07:51:29;17.70;99.90
57026;DHT22;43961;52.940;6.834;2023-08-07T07:53:54;18.00;99.90
57026;DHT22;43961;52.940;6.834;2023-08-07T07:56:20;17.50;99.90
57026;DHT22;43961;52.940;6.834;2023-08-07T07:58:46;17.60;99.90
57026;DHT22;43961;52.940;6.834;2023-08-07T08:01:11;17.60;99.90
57026;DHT22;43961;52.940;6.834;2023-08-07T08:03:37;17.40;99.90
57026;DHT22;43961;52.940;6.834;2023-08-07T08:06:03;17.60;99.90
57026;DHT22;43961;52.940;6.834;2023-08-07T08:08:28;17.60;99.90
57026;DHT22;43961;52.940;6.834;2023-08-07T08:10:54;17.50;99.90
57026;DHT22;43961;52.940;6.834;2023-08-07T08:13:20;17.30;99.90
57026;DHT22;43961;52.940;6.834;2023-08-07T08:15:45;17.20;99.90
57026;DHT22;43961;52.940;6.834;2023-08-07T08:18:11;17.10;99.90
57026;DHT22;43961;52.940;6.834;2023-08-07T08:20:40;17.10;99.90
57026;DHT22;43961;52.940;6.834;2023-08-07T08:23:05;17.20;99.90
57026;DHT22;43961;52.940;6.834;2023-08-07T08:25:31;17.30;99.90
57026;DHT22;43961;52.940;6.834;2023-08-07T08:27:58;17.10;99.90
57026;DHT22;43961;52.940;6.834;2023-08-07T08:30:25;17.50;99.90
57026;DHT22;43961;52.940;6.834;2023-08-07T08:32:51;17.50;99.90
57026;DHT22;43961;52.940;6.834;2023-08-07T08:35:17;17.70;99.90
57026;DHT22;43961;52.940;6.834;2023-08-07T08:37:43;18.10;99.90
57026;DHT22;43961;52.940;6.834;2023-08-07T08:40:09;18.20;99.90
57026;DHT22;43961;52.940;6.834;2023-08-07T08:42:39;18.10;99.90
57026;DHT22;43961;52.940;6.834;2023-08-07T08:45:08;17.50;99.90
57026;DHT22;43961;52.940;6.834;2023-08-07T08:47:36;17.80;99.90
57026;DHT22;43961;52.940;6.834;2023-08-07T08:50:10;17.40;99.90
57026;DHT22;43961;52.940;6.834;2023-08-07T08:52:38;17.50;99.90
57026;DHT22;43961;52.940;6.834;2023-08-07T08:55:05;17.30;99.90
57026;DHT22;43961;52.940;6.834;2023-08-07T08:57:33;17.60;99.90
57026;DHT22;43961;52.940;6.834;2023-08-07T09:00:00;17.40;99.90
57026;DHT22;43961;52.940;6.834;2023-08-07T09:02:26;17.60;99.90
57026;DHT22;43961;52.940;6.834;2023-08-07T09:04:51;17.50;99.90
57026;DHT22;43961;52.940;6.834;2023-08-07T09:07:19;17.70;99.90
57026;DHT22;43961;52.940;6.834;2023-08-07T09:09:46;17.90;99.90
57026;DHT22;43961;52.940;6.834;2023-08-07T09:12:26;18.30;99.90
57026;DHT22;43961;52.940;6.834;2023-08-07T09:14:56;18.70;99.90
57026;DHT22;43961;52.940;6.834;2023-08-07T09:17:31;18.90;99.90
57026;DHT22;43961;52.940;6.834;2023-08-07T09:19:57;19.20;99.90
57026;DHT22;43961;52.940;6.834;2023-08-07T09:22:23;19.20;99.90
57026;DHT22;43961;52.940;6.834;2023-08-07T09:24:49;19.20;99.90
57026;DHT22;43961;52.940;6.834;2023-08-07T09:27:15;19.80;99.90
57026;DHT22;43961;52.940;6.834;2023-08-07T09:29:41;19.60;99.90
57026;DHT22;43961;52.940;6.834;2023-08-07T09:32:17;20.20;99.90
57026;DHT22;43961;52.940;6.834;2023-08-07T09:34:44;20.40;99.90
57026;DHT22;43961;52.940;6.834;2023-08-07T09:37:10;20.00;99.90
57026;DHT22;43961;52.940;6.834;2023-08-07T09:39:36;20.60;99.90
57026;DHT22;43961;52.940;6.834;2023-08-07T09:42:12;20.30;99.90
57026;DHT22;43961;52.940;6.834;2023-08-07T09:44:38;20.50;99.90
57026;DHT22;43961;52.940;6.834;2023-08-07T09:47:12;20.70;99.90
57026;DHT22;43961;52.940;6.834;2023-08-07T09:49:39;20.70;99.90
57026;DHT22;43961;52.940;6.834;2023-08-07T09:52:06;20.90;99.90
57026;DHT22;43961;52.940;6.834;2023-08-07T09:54:36;20.70;99.90
57026;DHT22;43961;52.940;6.834;2023-08-07T09:57:03;20.70;99.90
57026;DHT22;43961;52.940;6.834;2023-08-07T09:59:29;21.10;99.90
57026;DHT22;43961;52.940;6.834;2023-08-07T10:01:59;20.70;99.90
57026;DHT22;43961;52.940;6.834;2023-08-07T10:04:27;21.00;99.90
57026;DHT22;43961;52.940;6.834;2023-08-07T10:06:53;21.00;99.90
57026;DHT22;43961;52.940;6.834;2023-08-07T10:09:18;20.60;99.90
57026;DHT22;43961;52.940;6.834;2023-08-07T10:11:45;20.60;99.90
57026;DHT22;43961;52.940;6.834;2023-08-07T10:14:12;20.00;99.90
57026;DHT22;43961;52.940;6.834;2023-08-07T10:16:38;20.30;99.90
57026;DHT22;43961;52.940;6.834;2023-08-07T10:19:06;20.50;99.90
57026;DHT22;43961;52.940;6.834;2023-08-07T10:21:34;20.60;99.90
57026;DHT22;43961;52.940;6.834;2023-08-07T10:24:06;20.60;99.90
57026;DHT22;43961;52.940;6.834;2023-08-07T10:26:35;20.70;99.90
57026;DHT22;43961;52.940;6.834;2023-08-07T10:29:06;20.70;99.90
57026;DHT22;43961;52.940;6.834;2023-08-07T10:31:33;20.90;99.90
57026;DHT22;43961;52.940;6.834;2023-08-07T10:34:01;20.50;99.90
57026;DHT22;43961;52.940;6.834;2023-08-07T10:36:34;20.40;99.90
57026;DHT22;43961;52.940;6.834;2023-08-07T10:39:10;20.50;99.90
57026;DHT22;43961;52.940;6.834;2023-08-07T10:41:46;20.50;99.90
57026;DHT22;43961;52.940;6.834;2023-08-07T10:44:25;20.30;99.90
57026;DHT22;43961;52.940;6.834;2023-08-07T10:46:53;20.20;99.90
57026;DHT22;43961;52.940;6.834;2023-08-07T10:52:08;19.70;99.90
57026;DHT22;43961;52.940;6.834;2023-08-07T10:54:46;20.50;99.90
57026;DHT22;43961;52.940;6.834;2023-08-07T10:57:13;20.50;99.90
57026;DHT22;43961;52.940;6.834;2023-08-07T10:59:50;20.20;99.90
57026;DHT22;43961;52.940;6.834;2023-08-07T11:02:26;20.10;99.90
57026;DHT22;43961;52.940;6.834;2023-08-07T11:04:53;19.90;99.90
57026;DHT22;43961;52.940;6.834;2023-08-07T11:07:26;19.70;99.90
57026;DHT22;43961;52.940;6.834;2023-08-07T11:09:53;19.80;99.90
57026;DHT22;43961;52.940;6.834;2023-08-07T11:12:19;19.70;99.90
57026;DHT22;43961;52.940;6.834;2023-08-07T11:14:46;19.50;99.90
57026;DHT22;43961;52.940;6.834;2023-08-07T11:17:12;19.60;99.90
57026;DHT22;43961;52.940;6.834;2023-08-07T11:19:38;19.90;99.90
57026;DHT22;43961;52.940;6.834;2023-08-07T11:22:04;19.80;99.90
57026;DHT22;43961;52.940;6.834;2023-08-07T11:24:30;20.30;99.90
57026;DHT22;43961;52.940;6.834;2023-08-07T11:26:57;20.00;99.90
57026;DHT22;43961;52.940;6.834;2023-08-07T11:29:24;20.00;99.90
57026;DHT22;43961;52.940;6.834;2023-08-07T11:31:51;20.10;99.90
57026;DHT22;43961;52.940;6.834;2023-08-07T11:34:20;20.20;99.90
57026;DHT22;43961;52.940;6.834;2023-08-07T11:36:46;20.50;99.90
57026;DHT22;43961;52.940;6.834;2023-08-07T11:39:13;20.20;99.90
57026;DHT22;43961;52.940;6.834;2023-08-07T11:41:39;20.50;99.90
57026;DHT22;43961;52.940;6.834;2023-08-07T11:44:09;20.40;99.90
57026;DHT22;43961;52.940;6.834;2023-08-07T11:46:35;20.30;99.90
57026;DHT22;43961;52.940;6.834;2023-08-07T11:49:01;20.10;99.90
57026;DHT22;43961;52.940;6.834;2023-08-07T11:51:29;20.20;99.90
57026;DHT22;43961;52.940;6.834;2023-08-07T11:53:56;20.50;99.90
57026;DHT22;43961;52.940;6.834;2023-08-07T11:56:25;20.30;99.90
57026;DHT22;43961;52.940;6.834;2023-08-07T11:58:51;20.30;99.90
57026;DHT22;43961;52.940;6.834;2023-08-07T12:01:20;20.30;99.90
57026;DHT22;43961;52.940;6.834;2023-08-07T12:03:58;20.10;99.90
57026;DHT22;43961;52.940;6.834;2023-08-07T12:06:34;20.00;99.90
57026;DHT22;43961;52.940;6.834;2023-08-07T12:09:11;20.20;99.90
57026;DHT22;43961;52.940;6.834;2023-08-07T12:11:38;20.20;99.90
57026;DHT22;43961;52.940;6.834;2023-08-07T12:14:04;20.00;99.90
57026;DHT22;43961;52.940;6.834;2023-08-07T12:16:34;20.10;99.90
57026;DHT22;43961;52.940;6.834;2023-08-07T12:19:00;20.00;99.90
57026;DHT22;43961;52.940;6.834;2023-08-07T12:21:26;19.90;99.90
57026;DHT22;43961;52.940;6.834;2023-08-07T12:23:56;20.30;99.90
57026;DHT22;43961;52.940;6.834;2023-08-07T12:26:22;20.10;99.90
57026;DHT22;43961;52.940;6.834;2023-08-07T12:28:48;20.30;99.90
57026;DHT22;43961;52.940;6.834;2023-08-07T12:31:13;20.30;99.90
57026;DHT22;43961;52.940;6.834;2023-08-07T12:33:39;20.40;99.90
57026;DHT22;43961;52.940;6.834;2023-08-07T12:36:05;20.50;99.90
57026;DHT22;43961;52.940;6.834;2023-08-07T12:38:31;20.50;99.90
57026;DHT22;43961;52.940;6.834;2023-08-07T12:40:57;20.40;99.90
57026;DHT22;43961;52.940;6.834;2023-08-07T12:43:23;19.90;99.90
57026;DHT22;43961;52.940;6.834;2023-08-07T12:45:48;19.50;99.90
57026;DHT22;43961;52.940;6.834;2023-08-07T12:48:14;19.50;99.90
57026;DHT22;43961;52.940;6.834;2023-08-07T12:50:40;19.00;99.90
57026;DHT22;43961;52.940;6.834;2023-08-07T12:53:07;18.90;99.90
57026;DHT22;43961;52.940;6.834;2023-08-07T12:55:33;18.80;99.90
57026;DHT22;43961;52.940;6.834;2023-08-07T12:57:59;19.30;99.90
57026;DHT22;43961;52.940;6.834;2023-08-07T13:00:25;18.90;99.90
57026;DHT22;43961;52.940;6.834;2023-08-07T13:02:52;18.90;99.90
57026;DHT22;43961;52.940;6.834;2023-08-07T13:05:19;19.00;99.90
57026;DHT22;43961;52.940;6.834;2023-08-07T13:07:46;19.00;99.90
57026;DHT22;43961;52.940;6.834;2023-08-07T13:10:14;19.40;99.90
57026;DHT22;43961;52.940;6.834;2023-08-07T13:12:42;19.00;99.90
57026;DHT22;43961;52.940;6.834;2023-08-07T13:15:11;19.10;99.90
57026;DHT22;43961;52.940;6.834;2023-08-07T13:17:39;19.20;99.90
57026;DHT22;43961;52.940;6.834;2023-08-07T13:20:05;19.20;99.90
57026;DHT22;43961;52.940;6.834;2023-08-07T13:22:38;19.40;99.90
57026;DHT22;43961;52.940;6.834;2023-08-07T13:25:04;19.70;99.90
57026;DHT22;43961;52.940;6.834;2023-08-07T13:27:31;19.80;99.90
57026;DHT22;43961;52.940;6.834;2023-08-07T13:29:57;19.90;99.90
57026;DHT22;43961;52.940;6.834;2023-08-07T13:32:22;19.70;99.90
57026;DHT22;43961;52.940;6.834;2023-08-07T13:34:48;19.70;99.90
57026;DHT22;43961;52.940;6.834;2023-08-07T13:37:14;19.80;99.90
57026;DHT22;43961;52.940;6.834;2023-08-07T13:39:40;19.80;99.90
57026;DHT22;43961;52.940;6.834;2023-08-07T13:42:06;19.70;99.90
57026;DHT22;43961;52.940;6.834;2023-08-07T13:44:32;19.60;99.90
57026;DHT22;43961;52.940;6.834;2023-08-07T13:46:58;19.60;99.90
57026;DHT22;43961;52.940;6.834;2023-08-07T13:49:24;19.60;99.90
57026;DHT22;43961;52.940;6.834;2023-08-07T13:51:50;19.50;99.90
57026;DHT22;43961;52.940;6.834;2023-08-07T13:54:16;19.30;99.90
57026;DHT22;43961;52.940;6.834;2023-08-07T13:56:42;19.30;99.90
57026;DHT22;43961;52.940;6.834;2023-08-07T13:59:08;19.20;99.90
57026;DHT22;43961;52.940;6.834;2023-08-07T14:01:35;19.20;99.90
57026;DHT22;43961;52.940;6.834;2023-08-07T14:04:04;19.10;99.90
57026;DHT22;43961;52.940;6.834;2023-08-07T14:06:30;19.20;99.90
57026;DHT22;43961;52.940;6.834;2023-08-07T14:08:55;19.20;99.90
57026;DHT22;43961;52.940;6.834;2023-08-07T14:11:21;19.20;99.90
57026;DHT22;43961;52.940;6.834;2023-08-07T14:13:50;19.40;99.90
57026;DHT22;43961;52.940;6.834;2023-08-07T14:16:15;19.50;99.90
57026;DHT22;43961;52.940;6.834;2023-08-07T14:18:41;19.40;99.90
57026;DHT22;43961;52.940;6.834;2023-08-07T14:21:07;19.60;99.90
57026;DHT22;43961;52.940;6.834;2023-08-07T14:23:33;19.70;99.90
57026;DHT22;43961;52.940;6.834;2023-08-07T14:25:58;19.50;99.90
57026;DHT22;43961;52.940;6.834;2023-08-07T14:28:24;19.50;99.90
57026;DHT22;43961;52.940;6.834;2023-08-07T14:30:51;19.40;99.90
57026;DHT22;43961;52.940;6.834;2023-08-07T14:33:16;19.30;99.90
57026;DHT22;43961;52.940;6.834;2023-08-07T14:35:42;19.20;99.90
57026;DHT22;43961;52.940;6.834;2023-08-07T14:38:08;19.20;99.90
57026;DHT22;43961;52.940;6.834;2023-08-07T14:40:33;19.30;99.90
57026;DHT22;43961;52.940;6.834;2023-08-07T14:43:03;19.50;99.90
57026;DHT22;43961;52.940;6.834;2023-08-07T14:45:28;19.20;99.90
57026;DHT22;43961;52.940;6.834;2023-08-07T14:47:54;19.30;99.90
57026;DHT22;43961;52.940;6.834;2023-08-07T14:50:20;19.40;99.90
57026;DHT22;43961;52.940;6.834;2023-08-07T14:52:45;19.40;99.90
57026;DHT22;43961;52.940;6.834;2023-08-07T14:55:11;19.40;99.90
57026;DHT22;43961;52.940;6.834;2023-08-07T14:57:37;19.50;99.90
57026;DHT22;43961;52.940;6.834;2023-08-07T15:00:03;19.40;99.90
57026;DHT22;43961;52.940;6.834;2023-08-07T15:02:31;19.50;99.90
57026;DHT22;43961;52.940;6.834;2023-08-07T15:04:56;19.30;99.90
57026;DHT22;43961;52.940;6.834;2023-08-07T15:07:22;19.30;99.90
57026;DHT22;43961;52.940;6.834;2023-08-07T15:09:48;19.20;99.90
57026;DHT22;43961;52.940;6.834;2023-08-07T15:12:17;19.60;99.90
57026;DHT22;43961;52.940;6.834;2023-08-07T15:14:42;19.70;99.90
57026;DHT22;43961;52.940;6.834;2023-08-07T15:17:08;19.30;99.90
57026;DHT22;43961;52.940;6.834;2023-08-07T15:19:34;19.30;99.90
57026;DHT22;43961;52.940;6.834;2023-08-07T15:22:00;19.30;99.90
57026;DHT22;43961;52.940;6.834;2023-08-07T15:24:26;18.90;99.90
57026;DHT22;43961;52.940;6.834;2023-08-07T15:26:51;19.60;99.90
57026;DHT22;43961;52.940;6.834;2023-08-07T15:29:17;19.40;99.90
57026;DHT22;43961;52.940;6.834;2023-08-07T15:31:43;19.70;99.90
57026;DHT22;43961;52.940;6.834;2023-08-07T15:34:09;19.50;99.90
57026;DHT22;43961;52.940;6.834;2023-08-07T15:36:34;19.30;99.90
57026;DHT22;43961;52.940;6.834;2023-08-07T15:39:00;19.40;99.90
57026;DHT22;43961;52.940;6.834;2023-08-07T15:41:26;19.30;99.90
57026;DHT22;43961;52.940;6.834;2023-08-07T15:43:51;19.50;99.90
57026;DHT22;43961;52.940;6.834;2023-08-07T15:46:18;19.30;99.90
57026;DHT22;43961;52.940;6.834;2023-08-07T15:48:44;19.60;99.90
57026;DHT22;43961;52.940;6.834;2023-08-07T15:51:09;19.40;99.90
57026;DHT22;43961;52.940;6.834;2023-08-07T15:53:35;19.40;99.90
57026;DHT22;43961;52.940;6.834;2023-08-07T15:56:01;19.20;99.90
57026;DHT22;43961;52.940;6.834;2023-08-07T15:58:27;19.20;99.90
57026;DHT22;43961;52.940;6.834;2023-08-07T16:00:53;19.10;99.90
57026;DHT22;43961;52.940;6.834;2023-08-07T16:03:19;19.20;99.90
57026;DHT22;43961;52.940;6.834;2023-08-07T16:05:48;19.00;99.90